createdAt,value
2022-08-01T00:00:09.556Z,94.30
2022-08-01T00:02:40.791Z,94.50
2022-08-01T00:05:09.095Z,90.20
2022-08-01T00:07:36.893Z,94.00
2022-08-01T00:10:09.412Z,90.30
2022-08-01T00:15:06.460Z,86.80
2022-08-01T00:17:33.321Z,88.10
2022-08-01T00:20:00.407Z,86.40
2022-08-01T00:27:21.295Z,94.20
2022-08-01T00:30:10.360Z,90.20
2022-08-01T00:37:29.151Z,93.00
2022-08-01T00:49:44.495Z,93.60
2022-08-01T00:59:38.002Z,94.50
2022-08-01T01:02:15.482Z,94.90
2022-08-01T01:04:43.660Z,91.30
2022-08-01T01:07:29.096Z,94.80
2022-08-01T01:10:16.367Z,90.30
2022-08-01T01:13:00.375Z,93.60
2022-08-01T01:15:48.271Z,86.20
2022-08-01T01:18:31.648Z,94.00
2022-08-01T01:21:17.419Z,86.70
2022-08-01T01:24:12.564Z,86.90
2022-08-01T01:29:21.895Z,87.10
2022-08-01T01:32:10.576Z,95.00
2022-08-01T01:34:39.189Z,88.70
2022-08-01T01:37:09.921Z,88.70
2022-08-01T01:42:07.293Z,89.10
2022-08-01T01:44:36.535Z,95.30
2022-08-01T01:47:03.941Z,88.50
2022-08-01T01:49:33.874Z,89.10
2022-08-01T01:52:03.139Z,89.10
2022-08-01T01:54:34.600Z,91.30
2022-08-01T01:57:05.053Z,89.30
2022-08-01T01:59:35.379Z,89.30
2022-08-01T02:02:06.495Z,89.40
2022-08-01T02:04:36.092Z,90.50
2022-08-01T02:09:31.400Z,88.90
2022-08-01T02:12:08.160Z,89.40
2022-08-01T02:14:36.755Z,88.90
2022-08-01T02:17:05.001Z,93.60
2022-08-01T02:22:23.638Z,90.70
2022-08-01T02:25:00.369Z,95.40
2022-08-01T02:27:34.915Z,95.30
2022-08-01T02:30:08.405Z,94.50
2022-08-01T02:32:43.839Z,87.50
2022-08-01T02:35:22.905Z,93.80
2022-08-01T02:37:50.651Z,95.40
2022-08-01T02:40:18.868Z,93.50
2022-08-01T02:42:50.439Z,89.70
2022-08-01T02:45:20.152Z,91.90
2022-08-01T02:47:49.324Z,95.50
2022-08-01T02:50:18.653Z,91.60
2022-08-01T02:52:49.416Z,89.80
2022-08-01T02:55:16.965Z,95.40
2022-08-01T02:57:52.521Z,95.60
2022-08-01T03:00:25.725Z,90.60
2022-08-01T03:02:55.990Z,91.50
2022-08-01T03:05:24.371Z,91.60
2022-08-01T03:07:53.929Z,89.90
2022-08-01T03:10:22.249Z,94.40
2022-08-01T03:12:51.004Z,90.00
2022-08-01T03:15:18.844Z,92.20
2022-08-01T03:17:47.680Z,90.00
2022-08-01T03:20:17.448Z,90.60
2022-08-01T03:22:45.987Z,96.10
2022-08-01T03:25:14.584Z,89.70
2022-08-01T03:27:44.176Z,95.40
2022-08-01T03:30:12.135Z,88.60
2022-08-01T03:32:39.691Z,95.30
2022-08-01T03:38:00.054Z,89.80
2022-08-01T03:40:41.771Z,95.80
2022-08-01T03:43:15.611Z,89.40
2022-08-01T03:45:46.797Z,91.30
2022-08-01T03:48:17.037Z,91.60
2022-08-01T03:50:48.805Z,94.90
2022-08-01T03:53:16.918Z,90.00
2022-08-01T03:55:44.624Z,90.90
2022-08-01T03:58:12.787Z,89.70
2022-08-01T04:00:40.517Z,89.60
2022-08-01T04:03:09.077Z,90.10
2022-08-01T04:05:36.529Z,96.20
2022-08-01T04:08:03.713Z,93.40
2022-08-01T04:17:52.371Z,94.30
2022-08-01T04:22:46.345Z,92.10
2022-08-01T04:25:22.963Z,96.10
2022-08-01T04:27:56.156Z,96.00
2022-08-01T04:30:30.693Z,94.60
2022-08-01T04:36:03.519Z,90.20
2022-08-01T04:38:18.587Z,95.60
2022-08-01T04:40:47.086Z,90.20
2022-08-01T04:43:15.125Z,92.90
2022-08-01T04:45:44.655Z,89.90
2022-08-01T04:48:13.256Z,89.30
2022-08-01T04:50:42.727Z,92.10
2022-08-01T04:53:17.680Z,87.80
2022-08-01T04:55:46.837Z,89.90
2022-08-01T04:58:17.913Z,88.40
2022-08-01T05:00:45.970Z,90.20
2022-08-01T05:10:35.099Z,90.80
2022-08-01T05:13:01.880Z,95.40
2022-08-01T05:15:28.554Z,93.90
2022-08-01T05:17:55.553Z,88.70
2022-08-01T05:25:19.967Z,95.40
2022-08-01T05:35:12.491Z,88.70
2022-08-01T05:40:07.213Z,90.90
2022-08-01T05:45:01.315Z,95.50
2022-08-01T05:47:27.998Z,95.50
2022-08-01T05:52:21.857Z,91.40
2022-08-01T05:54:48.561Z,92.00
2022-08-01T05:59:42.401Z,95.90
2022-08-01T06:04:37.333Z,95.40
2022-08-01T06:11:58.787Z,96.20
2022-08-01T06:14:25.579Z,96.20
2022-08-01T06:24:13.754Z,96.20
2022-08-01T06:26:40.486Z,92.30
2022-08-01T06:29:07.173Z,96.60
2022-08-01T06:31:36.821Z,96.40
2022-08-01T06:34:03.599Z,92.60
2022-08-01T06:36:30.302Z,94.90
2022-08-01T06:41:24.469Z,97.30
2022-08-01T06:43:51.193Z,96.40
2022-08-01T06:53:43.453Z,96.00
2022-08-01T06:58:38.299Z,95.70
2022-08-01T07:01:07.023Z,90.20
2022-08-01T07:03:54.276Z,90.40
2022-08-01T07:06:26.168Z,96.10
2022-08-01T07:08:56.012Z,95.80
2022-08-01T07:11:24.672Z,90.40
2022-08-01T07:16:18.617Z,95.00
2022-08-01T07:21:38.218Z,96.40
2022-08-01T07:26:28.259Z,96.40
2022-08-01T07:36:17.386Z,90.20
2022-08-01T07:38:44.954Z,90.30
2022-08-01T07:48:33.680Z,96.00
2022-08-01T07:51:00.671Z,95.30
2022-08-01T07:53:27.384Z,93.00
2022-08-01T07:55:54.105Z,94.60
2022-08-01T07:58:20.834Z,92.40
2022-08-01T08:05:57.851Z,95.70
2022-08-01T08:08:26.271Z,95.30
2022-08-01T08:10:53.170Z,94.20
2022-08-01T08:13:20.015Z,92.40
2022-08-01T08:15:48.360Z,77.20
2022-08-01T08:18:15.834Z,87.00
2022-08-01T08:23:42.495Z,85.20
2022-08-01T08:26:11.911Z,77.20
2022-08-01T08:36:22.185Z,84.40
2022-08-01T08:38:58.899Z,82.80
2022-08-01T08:41:25.574Z,81.50
2022-08-01T08:46:28.291Z,76.00
2022-08-01T08:48:56.796Z,77.40
2022-08-01T08:51:26.540Z,76.70
2022-08-01T08:53:56.464Z,73.40
2022-08-01T08:56:25.664Z,73.80
2022-08-01T08:58:55.334Z,68.10
2022-08-01T09:01:22.979Z,69.90
2022-08-01T09:03:49.900Z,68.00
2022-08-01T09:08:43.823Z,66.00
2022-08-01T09:11:10.783Z,60.70
2022-08-01T09:13:37.712Z,61.70
2022-08-01T09:16:18.471Z,61.50
2022-08-01T09:21:23.930Z,60.10
2022-08-01T09:23:53.639Z,53.50
2022-08-01T09:26:36.730Z,55.40
2022-08-01T09:29:06.889Z,47.90
2022-08-01T09:31:47.570Z,61.30
2022-08-01T09:34:15.789Z,60.20
2022-08-01T09:36:55.319Z,57.80
2022-08-01T09:39:23.416Z,42.20
2022-08-01T09:44:18.713Z,54.60
2022-08-01T09:46:58.122Z,54.60
2022-08-01T09:49:49.706Z,51.80
2022-08-01T09:52:28.952Z,51.60
2022-08-01T09:54:59.223Z,51.40
2022-08-01T09:57:26.913Z,51.10
2022-08-01T09:59:58.692Z,51.80
2022-08-01T10:02:38.636Z,51.00
2022-08-01T10:05:08.945Z,51.30
2022-08-01T10:07:57.997Z,51.30
2022-08-01T10:13:00.000Z,49.60
2022-08-01T10:15:36.406Z,35.20
2022-08-01T10:18:16.528Z,49.30
2022-08-01T10:20:56.481Z,46.70
2022-08-01T10:23:40.777Z,48.80
2022-08-01T10:26:08.989Z,48.60
2022-08-01T10:28:38.675Z,43.80
2022-08-01T10:31:12.661Z,49.10
2022-08-01T10:33:51.312Z,51.30
2022-08-01T10:36:25.523Z,50.60
2022-08-01T10:38:55.447Z,49.70
2022-08-01T10:41:22.622Z,50.50
2022-08-01T10:46:18.991Z,49.70
2022-08-01T10:49:08.236Z,48.10
2022-08-01T10:51:51.940Z,48.90
2022-08-01T10:54:25.886Z,34.30
2022-08-01T10:56:53.647Z,47.20
2022-08-01T10:59:50.766Z,46.80
2022-08-01T11:02:32.150Z,32.40
2022-08-01T11:05:04.394Z,31.30
2022-08-01T11:07:49.732Z,36.70
2022-08-01T11:10:20.536Z,45.50
2022-08-01T11:12:51.400Z,45.20
2022-08-01T11:15:30.177Z,45.70
2022-08-01T11:18:00.262Z,38.00
2022-08-01T11:20:42.457Z,43.90
2022-08-01T11:23:11.623Z,32.80
2022-08-01T11:26:03.139Z,43.60
2022-08-01T11:28:33.831Z,44.00
2022-08-01T11:31:10.747Z,42.20
2022-08-01T11:33:45.897Z,43.10
2022-08-01T11:38:48.842Z,41.30
2022-08-01T11:41:38.234Z,31.00
2022-08-01T11:44:14.308Z,41.00
2022-08-01T11:46:51.325Z,37.60
2022-08-01T11:49:25.092Z,37.90
2022-08-01T11:52:02.828Z,35.40
2022-08-01T11:54:36.196Z,26.60
2022-08-01T11:57:06.517Z,24.20
2022-08-01T11:59:41.360Z,35.40
2022-08-01T12:02:30.740Z,25.00
2022-08-01T12:05:03.292Z,23.30
2022-08-01T12:07:33.888Z,21.90
2022-08-01T12:10:10.923Z,29.40
2022-08-01T12:12:42.722Z,20.60
2022-08-01T12:15:10.777Z,21.30
2022-08-01T12:17:58.648Z,20.50
2022-08-01T12:21:01.799Z,20.20
2022-08-01T12:23:28.520Z,18.80
2022-08-01T12:25:55.480Z,19.10
2022-08-01T12:28:22.468Z,26.30
2022-08-01T12:30:50.466Z,18.80
2022-08-01T12:33:21.329Z,18.00
2022-08-01T12:35:48.603Z,18.30
2022-08-01T12:38:17.102Z,18.40
2022-08-01T12:40:46.004Z,18.50
2022-08-01T12:43:27.194Z,18.20
2022-08-01T12:45:57.384Z,25.80
2022-08-01T12:48:24.869Z,17.60
2022-08-01T12:50:53.522Z,18.00
2022-08-01T12:53:21.542Z,18.20
2022-08-01T12:55:59.193Z,18.10
2022-08-01T12:58:36.031Z,17.70
2022-08-01T13:01:09.039Z,27.00
2022-08-01T13:03:36.474Z,17.70
2022-08-01T13:06:15.723Z,17.60
2022-08-01T13:08:43.264Z,26.60
2022-08-01T13:11:16.124Z,17.90
2022-08-01T13:13:51.633Z,27.50
2022-08-01T13:16:30.313Z,17.90
2022-08-01T13:19:06.382Z,17.90
2022-08-01T13:21:52.193Z,17.70
2022-08-01T13:24:28.460Z,17.80
2022-08-01T13:27:01.972Z,17.10
2022-08-01T13:29:33.864Z,25.90
2022-08-01T13:32:12.550Z,17.70
2022-08-01T13:35:04.420Z,26.80
2022-08-01T13:37:31.211Z,26.80
2022-08-01T13:39:59.209Z,27.20
2022-08-01T13:42:26.117Z,18.20
2022-08-01T13:44:53.311Z,17.70
2022-08-01T13:47:20.022Z,27.20
2022-08-01T13:50:03.373Z,26.00
2022-08-01T13:52:33.878Z,26.00
2022-08-01T13:55:01.263Z,26.80
2022-08-01T13:57:36.747Z,27.40
2022-08-01T14:00:06.943Z,28.00
2022-08-01T14:02:39.157Z,27.70
2022-08-01T14:05:06.271Z,27.50
2022-08-01T14:07:33.249Z,28.20
2022-08-01T14:10:18.843Z,30.50
2022-08-01T14:12:50.424Z,30.60
2022-08-01T14:18:05.947Z,26.70
2022-08-01T14:20:33.849Z,32.80
2022-08-01T14:26:00.477Z,27.60
2022-08-01T14:28:14.622Z,34.80
2022-08-01T14:30:44.463Z,35.70
2022-08-01T14:33:11.901Z,22.90
2022-08-01T14:40:59.302Z,37.50
2022-08-01T14:43:32.432Z,38.60
2022-08-01T14:46:04.528Z,37.50
2022-08-01T14:51:01.349Z,40.20
2022-08-01T14:53:28.092Z,41.40
2022-08-01T14:58:22.111Z,41.50
2022-08-01T15:00:55.427Z,41.60
2022-08-01T15:03:24.939Z,42.80
2022-08-01T15:15:40.278Z,45.20
2022-08-01T15:23:04.983Z,45.10
2022-08-01T15:28:10.463Z,30.40
2022-08-01T15:30:37.746Z,30.60
2022-08-01T15:33:04.458Z,45.20
2022-08-01T15:35:31.250Z,47.20
2022-08-01T15:37:58.029Z,43.60
2022-08-01T15:40:24.888Z,47.70
2022-08-01T15:42:53.045Z,46.60
2022-08-01T15:45:45.961Z,48.20
2022-08-01T15:48:08.687Z,47.40
2022-08-01T15:50:35.444Z,47.90
2022-08-01T16:00:23.560Z,51.00
2022-08-01T16:05:20.612Z,50.00
2022-08-01T16:07:59.834Z,51.50
2022-08-01T16:10:30.073Z,50.20
2022-08-01T16:15:36.860Z,50.70
2022-08-01T16:18:06.175Z,50.80
2022-08-01T16:20:33.204Z,52.00
2022-08-01T16:23:00.041Z,49.90
2022-08-01T16:25:26.768Z,50.70
2022-08-01T16:27:53.491Z,51.30
2022-08-01T16:35:24.447Z,52.60
2022-08-01T16:38:04.612Z,51.10
2022-08-01T16:40:31.713Z,53.20
2022-08-01T16:43:14.135Z,41.20
2022-08-01T16:45:42.931Z,53.30
2022-08-01T16:48:15.771Z,54.30
2022-08-01T16:50:43.251Z,39.10
2022-08-01T16:53:09.962Z,55.70
2022-08-01T16:55:45.824Z,55.20
2022-08-01T16:58:19.528Z,39.90
2022-08-01T17:03:51.927Z,54.20
2022-08-01T17:11:14.457Z,55.40
2022-08-01T17:13:41.753Z,55.30
2022-08-01T17:16:09.326Z,55.90
2022-08-01T17:18:36.080Z,56.60
2022-08-01T17:21:02.884Z,47.70
2022-08-01T17:23:31.644Z,58.00
2022-08-01T17:25:58.851Z,57.10
2022-08-01T17:28:28.207Z,44.20
2022-08-01T17:35:49.175Z,59.40
2022-08-01T17:40:44.003Z,58.40
2022-08-01T17:43:13.438Z,56.50
2022-08-01T17:45:51.038Z,60.40
2022-08-01T17:48:20.980Z,44.90
2022-08-01T17:50:48.739Z,56.50
2022-08-01T17:53:20.966Z,45.80
2022-08-01T17:58:33.173Z,58.60
2022-08-01T18:01:12.055Z,62.40
2022-08-01T18:11:02.926Z,51.40
2022-08-01T18:13:29.906Z,57.90
2022-08-01T18:18:33.567Z,63.00
2022-08-01T18:21:04.714Z,63.30
2022-08-01T18:23:33.670Z,48.90
2022-08-01T18:26:02.298Z,64.00
2022-08-01T18:28:41.739Z,50.10
2022-08-01T18:31:20.269Z,64.00
2022-08-01T18:33:47.085Z,64.30
2022-08-01T18:36:32.276Z,57.00
2022-08-01T18:39:13.031Z,51.10
2022-08-01T18:44:08.960Z,51.70
2022-08-01T18:46:37.729Z,67.00
2022-08-01T18:49:07.089Z,52.10
2022-08-01T18:56:31.365Z,64.90
2022-08-01T18:58:58.087Z,52.30
2022-08-01T19:01:27.388Z,65.40
2022-08-01T19:08:51.765Z,69.20
2022-08-01T19:21:13.081Z,64.50
2022-08-01T19:23:58.362Z,63.20
2022-08-01T19:26:26.355Z,56.80
2022-08-01T19:28:57.413Z,57.20
2022-08-01T19:31:27.552Z,57.30
2022-08-01T19:33:57.401Z,66.50
2022-08-01T19:36:28.301Z,55.40
2022-08-01T19:38:56.484Z,72.20
2022-08-01T19:41:23.587Z,71.20
2022-08-01T19:43:53.292Z,61.20
2022-08-01T19:51:33.456Z,61.00
2022-08-01T19:54:07.319Z,65.20
2022-08-01T19:56:40.844Z,60.30
2022-08-01T20:01:36.755Z,76.70
2022-08-01T20:04:06.083Z,63.50
2022-08-01T20:09:04.397Z,77.20
2022-08-01T20:11:31.499Z,77.00
2022-08-01T20:13:59.749Z,67.20
2022-08-01T20:16:28.448Z,64.70
2022-08-01T20:21:24.812Z,66.00
2022-08-01T20:23:53.310Z,65.90
2022-08-01T20:26:30.887Z,66.60
2022-08-01T20:28:57.985Z,80.40
2022-08-01T20:31:42.951Z,66.10
2022-08-01T20:34:17.794Z,81.70
2022-08-01T20:36:54.328Z,75.50
2022-08-01T20:39:24.063Z,76.20
2022-08-01T20:41:59.579Z,75.00
2022-08-01T20:44:31.445Z,83.20
2022-08-01T20:47:02.272Z,69.30
2022-08-01T20:52:11.163Z,80.10
2022-08-01T20:54:39.728Z,70.50
2022-08-01T20:57:15.686Z,70.30
2022-08-01T20:59:57.449Z,83.60
2022-08-01T21:02:27.439Z,84.80
2022-08-01T21:05:35.219Z,83.80
2022-08-01T21:08:12.468Z,85.40
2022-08-01T21:10:43.234Z,71.70
2022-08-01T21:13:20.494Z,72.60
2022-08-01T21:16:07.353Z,81.50
2022-08-01T21:19:19.147Z,70.60
2022-08-01T21:22:19.860Z,71.30
2022-08-01T21:24:58.897Z,84.30
2022-08-01T21:27:33.561Z,79.60
2022-08-01T21:30:06.091Z,87.30
2022-08-01T21:32:34.847Z,75.70
2022-08-01T21:35:16.819Z,73.90
2022-08-01T21:37:47.942Z,81.90
2022-08-01T21:40:21.889Z,87.60
2022-08-01T21:42:50.989Z,75.10
2022-08-01T21:45:22.197Z,82.00
2022-08-01T21:47:50.144Z,85.20
2022-08-01T21:50:17.176Z,88.40
2022-08-01T21:52:50.436Z,88.70
2022-08-01T21:55:35.664Z,76.00
2022-08-01T21:58:19.022Z,89.30
2022-08-01T22:00:53.224Z,76.30
2022-08-01T22:03:34.426Z,81.20
2022-08-01T22:06:03.852Z,76.70
2022-08-01T22:08:35.923Z,75.20
2022-08-01T22:11:08.066Z,89.60
2022-08-01T22:13:35.535Z,77.60
2022-08-01T22:16:04.647Z,81.40
2022-08-01T22:18:35.625Z,77.90
2022-08-01T22:21:04.324Z,85.20
2022-08-01T22:23:35.779Z,81.00
2022-08-01T22:26:09.453Z,90.60
2022-08-01T22:28:37.668Z,77.40
2022-08-01T22:33:38.215Z,80.20
2022-08-01T22:36:06.819Z,79.40
2022-08-01T22:38:34.197Z,78.40
2022-08-01T22:41:04.365Z,79.60
2022-08-01T22:43:54.141Z,80.60
2022-08-01T22:46:33.280Z,79.90
2022-08-01T22:49:20.310Z,84.60
2022-08-01T22:51:54.880Z,77.50
2022-08-01T22:54:29.153Z,90.80
2022-08-01T22:56:57.067Z,79.10
2022-08-01T22:59:42.519Z,88.30
2022-08-01T23:02:12.890Z,86.30
2022-08-01T23:04:44.026Z,80.00
2022-08-01T23:07:12.000Z,80.50
2022-08-01T23:12:22.304Z,79.70
2022-08-01T23:14:55.437Z,91.20
2022-08-01T23:17:29.305Z,79.90
2022-08-01T23:19:58.735Z,80.00
2022-08-01T23:22:32.566Z,79.90
2022-08-01T23:25:05.397Z,87.90
2022-08-01T23:27:51.435Z,80.00
2022-08-01T23:30:28.756Z,91.60
2022-08-01T23:32:55.961Z,83.40
2022-08-01T23:37:51.499Z,81.10
2022-08-01T23:40:19.261Z,83.20
2022-08-01T23:47:40.880Z,85.40
2022-08-01T23:50:08.647Z,86.00
2022-08-01T23:52:35.887Z,79.80
2022-08-01T23:55:15.889Z,91.60
2022-08-01T23:57:43.212Z,91.30
